createdAt,value
2023-05-05T00:02:13.266Z,11.23
2023-05-05T00:04:39.642Z,11.25
2023-05-05T00:07:05.985Z,11.23
2023-05-05T00:09:32.566Z,11.14
2023-05-05T00:11:58.964Z,11.13
2023-05-05T00:14:25.370Z,11.09
2023-05-05T00:16:52.588Z,11.08
2023-05-05T00:19:18.982Z,11.01
2023-05-05T00:21:45.335Z,10.94
2023-05-05T00:24:11.823Z,10.93
2023-05-05T00:26:38.238Z,10.93
2023-05-05T00:29:04.685Z,10.98
2023-05-05T00:31:31.105Z,10.81
2023-05-05T00:33:57.494Z,10.74
2023-05-05T00:36:23.849Z,10.75
2023-05-05T00:38:50.269Z,10.60
2023-05-05T00:41:16.660Z,10.63
2023-05-05T00:43:43.143Z,10.59
2023-05-05T00:46:28.294Z,10.66
2023-05-05T00:48:54.796Z,10.56
2023-05-05T00:51:21.213Z,10.52
2023-05-05T00:53:48.230Z,10.51
2023-05-05T00:56:15.930Z,10.49
2023-05-05T00:58:42.756Z,10.54
2023-05-05T01:01:09.684Z,10.54
2023-05-05T01:03:39.810Z,10.51
2023-05-05T01:06:28.011Z,10.49
2023-05-05T01:09:05.977Z,10.54
2023-05-05T01:11:38.798Z,10.44
2023-05-05T01:14:17.078Z,10.47
2023-05-05T01:16:53.868Z,10.44
2023-05-05T01:19:46.207Z,10.43
2023-05-05T01:22:14.062Z,10.46
2023-05-05T01:25:11.681Z,10.42
2023-05-05T01:27:59.608Z,10.39
2023-05-05T01:30:44.100Z,10.31
2023-05-05T01:33:11.868Z,10.28
2023-05-05T01:35:42.273Z,10.24
2023-05-05T01:38:16.843Z,10.20
2023-05-05T01:40:57.551Z,10.15
2023-05-05T01:43:24.103Z,10.11
2023-05-05T01:45:50.591Z,10.06
2023-05-05T01:48:17.210Z,10.06
2023-05-05T01:50:43.906Z,10.07
2023-05-05T01:53:10.240Z,10.17
2023-05-05T01:55:36.873Z,10.04
2023-05-05T01:58:03.819Z,10.10
2023-05-05T02:00:30.422Z,9.98
2023-05-05T02:02:57.348Z,9.94
2023-05-05T02:05:23.841Z,9.93
2023-05-05T02:07:50.841Z,9.91
2023-05-05T02:10:17.201Z,9.87
2023-05-05T02:12:43.643Z,9.93
2023-05-05T02:15:10.642Z,9.80
2023-05-05T02:17:37.008Z,9.71
2023-05-05T02:20:04.177Z,9.75
2023-05-05T02:22:31.650Z,9.80
2023-05-05T02:24:58.433Z,9.80
2023-05-05T02:27:24.985Z,9.75
2023-05-05T02:29:57.728Z,9.81
2023-05-05T02:32:32.281Z,9.77
2023-05-05T02:34:58.881Z,9.73
2023-05-05T02:37:26.074Z,9.75
2023-05-05T02:39:59.070Z,9.87
2023-05-05T02:42:30.008Z,9.79
2023-05-05T02:44:58.839Z,9.84
2023-05-05T02:47:36.586Z,9.75
2023-05-05T02:50:07.319Z,9.65
2023-05-05T02:52:33.875Z,9.67
2023-05-05T02:55:00.527Z,9.62
2023-05-05T02:57:37.792Z,9.63
2023-05-05T03:00:16.309Z,9.74
2023-05-05T03:02:53.904Z,9.66
2023-05-05T03:05:24.450Z,9.71
2023-05-05T03:07:56.045Z,9.67
2023-05-05T03:10:33.916Z,9.66
2023-05-05T03:13:01.408Z,9.63
2023-05-05T03:15:32.152Z,9.52
2023-05-05T03:17:58.716Z,9.56
2023-05-05T03:20:25.810Z,9.58
2023-05-05T03:22:52.155Z,9.52
2023-05-05T03:25:18.747Z,9.47
2023-05-05T03:27:45.108Z,9.59
2023-05-05T03:30:12.091Z,9.55
2023-05-05T03:32:38.720Z,9.51
2023-05-05T03:35:05.547Z,9.47
2023-05-05T03:37:31.910Z,9.53
2023-05-05T03:39:58.443Z,9.58
2023-05-05T03:42:25.122Z,9.48
2023-05-05T03:44:53.529Z,9.45
2023-05-05T03:47:20.108Z,9.48
2023-05-05T03:49:46.469Z,9.53
2023-05-05T03:52:14.977Z,9.58
2023-05-05T03:54:42.602Z,9.56
2023-05-05T03:57:08.944Z,9.63
2023-05-05T03:59:35.346Z,9.58
2023-05-05T04:02:01.917Z,9.61
2023-05-05T04:04:28.416Z,9.44
2023-05-05T04:06:54.895Z,9.34
2023-05-05T04:09:21.447Z,9.32
2023-05-05T04:11:47.785Z,9.33
2023-05-05T04:14:14.195Z,9.37
2023-05-05T04:16:40.762Z,9.30
2023-05-05T04:19:07.145Z,9.24
2023-05-05T04:21:33.498Z,9.15
2023-05-05T04:24:00.037Z,9.30
2023-05-05T04:26:27.198Z,9.24
2023-05-05T04:28:53.561Z,9.21
2023-05-05T04:31:20.162Z,9.17
2023-05-05T04:33:46.543Z,9.14
2023-05-05T04:36:13.002Z,9.10
2023-05-05T04:38:39.499Z,9.04
2023-05-05T04:41:08.907Z,9.05
2023-05-05T04:43:35.963Z,9.11
2023-05-05T04:46:02.306Z,9.21
2023-05-05T04:48:28.682Z,9.21
2023-05-05T04:50:55.211Z,9.15
2023-05-05T04:53:21.556Z,9.16
2023-05-05T04:55:47.952Z,9.11
2023-05-05T04:58:14.335Z,9.20
2023-05-05T05:00:40.697Z,9.25
2023-05-05T05:03:08.149Z,9.26
2023-05-05T05:05:34.587Z,9.30
2023-05-05T05:08:00.944Z,9.39
2023-05-05T05:10:28.387Z,9.29
2023-05-05T05:12:54.989Z,9.31
2023-05-05T05:15:21.443Z,9.32
2023-05-05T05:17:47.777Z,9.33
2023-05-05T05:20:14.394Z,9.38
2023-05-05T05:22:42.044Z,9.43
2023-05-05T05:25:08.744Z,9.56
2023-05-05T05:27:35.144Z,9.63
2023-05-05T05:30:01.631Z,9.72
2023-05-05T05:32:27.993Z,9.73
2023-05-05T05:34:54.582Z,9.83
2023-05-05T05:37:21.053Z,9.92
2023-05-05T05:39:53.520Z,10.01
2023-05-05T05:42:19.922Z,10.08
2023-05-05T05:44:46.264Z,10.17
2023-05-05T05:47:12.603Z,10.25
2023-05-05T05:49:39.020Z,10.33
2023-05-05T05:52:05.870Z,10.41
2023-05-05T05:54:34.402Z,10.51
2023-05-05T05:57:02.590Z,10.58
2023-05-05T05:59:28.949Z,10.68
2023-05-05T06:01:55.672Z,10.79
2023-05-05T06:04:22.107Z,10.89
2023-05-05T06:06:48.471Z,10.93
2023-05-05T06:09:14.847Z,10.99
2023-05-05T06:11:41.247Z,10.99
2023-05-05T06:14:07.584Z,11.03
2023-05-05T06:16:34.007Z,11.03
2023-05-05T06:19:00.436Z,11.00
2023-05-05T06:21:27.624Z,11.07
2023-05-05T06:23:53.985Z,11.07
2023-05-05T06:26:21.667Z,11.12
2023-05-05T06:28:48.024Z,11.18
2023-05-05T06:31:14.469Z,11.28
2023-05-05T06:33:40.965Z,11.37
2023-05-05T06:36:07.508Z,11.49
2023-05-05T06:38:33.881Z,11.55
2023-05-05T06:41:00.438Z,11.63
2023-05-05T06:43:26.932Z,11.73
2023-05-05T06:45:53.320Z,11.82
2023-05-05T06:48:19.735Z,11.92
2023-05-05T06:50:46.098Z,12.02
2023-05-05T06:53:12.443Z,12.11
2023-05-05T06:55:42.731Z,12.14
2023-05-05T06:58:09.290Z,12.19
2023-05-05T07:00:35.668Z,12.30
2023-05-05T07:03:02.568Z,12.38
2023-05-05T07:05:28.973Z,12.54
2023-05-05T07:07:55.819Z,12.58
2023-05-05T07:10:22.942Z,12.68
2023-05-05T07:12:49.643Z,12.80
2023-05-05T07:15:26.716Z,12.93
2023-05-05T07:17:55.526Z,13.05
2023-05-05T07:20:21.918Z,13.18
2023-05-05T07:22:48.272Z,13.37
2023-05-05T07:25:14.677Z,13.52
2023-05-05T07:27:41.035Z,13.61
2023-05-05T07:30:12.412Z,13.75
2023-05-05T07:32:40.925Z,13.85
2023-05-05T07:35:07.560Z,13.92
2023-05-05T07:37:34.086Z,14.04
2023-05-05T07:40:00.624Z,14.08
2023-05-05T07:42:26.953Z,14.18
2023-05-05T07:44:53.327Z,14.21
2023-05-05T07:47:20.121Z,14.23
2023-05-05T07:49:46.521Z,14.22
2023-05-05T07:52:12.978Z,14.18
2023-05-05T07:54:39.740Z,14.21
2023-05-05T07:57:06.120Z,14.24
2023-05-05T07:59:32.497Z,14.31
2023-05-05T08:01:58.861Z,14.49
2023-05-05T08:04:25.310Z,14.58
2023-05-05T08:06:51.744Z,14.76
2023-05-05T08:09:18.140Z,14.92
2023-05-05T08:11:44.493Z,14.89
2023-05-05T08:14:10.902Z,15.01
2023-05-05T08:16:37.324Z,15.01
2023-05-05T08:19:05.066Z,15.10
2023-05-05T08:21:36.475Z,15.21
2023-05-05T08:24:02.874Z,15.44
2023-05-05T08:26:29.250Z,15.67
2023-05-05T08:29:00.559Z,15.80
2023-05-05T08:31:28.287Z,15.92
2023-05-05T08:33:55.074Z,15.96
2023-05-05T08:36:21.419Z,16.08
2023-05-05T08:38:47.756Z,16.32
2023-05-05T08:41:14.486Z,16.48
2023-05-05T08:43:43.659Z,16.57
2023-05-05T08:46:11.229Z,16.68
2023-05-05T08:48:38.573Z,16.85
2023-05-05T08:51:05.681Z,16.90
2023-05-05T08:53:46.733Z,16.92
2023-05-05T08:56:13.410Z,17.18
2023-05-05T08:58:39.750Z,17.26
2023-05-05T09:01:06.674Z,17.33
2023-05-05T09:03:33.114Z,17.31
2023-05-05T09:05:59.497Z,17.27
2023-05-05T09:08:26.099Z,17.32
2023-05-05T09:10:52.465Z,17.22
2023-05-05T09:13:18.848Z,17.28
2023-05-05T09:15:45.408Z,17.42
2023-05-05T09:18:14.711Z,17.53
2023-05-05T09:20:41.560Z,17.51
2023-05-05T09:23:09.116Z,17.49
2023-05-05T09:25:35.772Z,17.59
2023-05-05T09:28:08.593Z,17.76
2023-05-05T09:30:34.933Z,17.99
2023-05-05T09:33:02.203Z,18.23
2023-05-05T09:35:28.653Z,18.37
2023-05-05T09:37:55.108Z,18.34
2023-05-05T09:40:21.824Z,18.45
2023-05-05T09:42:48.279Z,18.52
2023-05-05T09:45:17.641Z,18.54
2023-05-05T09:47:47.346Z,18.60
2023-05-05T09:50:15.912Z,18.53
2023-05-05T09:52:42.885Z,18.61
2023-05-05T09:55:17.617Z,18.78
2023-05-05T09:57:43.963Z,18.79
2023-05-05T10:00:10.956Z,18.77
2023-05-05T10:02:38.946Z,18.78
2023-05-05T10:05:16.027Z,18.74
2023-05-05T10:07:43.705Z,18.69
2023-05-05T10:10:14.197Z,18.69
2023-05-05T10:12:40.891Z,18.70
2023-05-05T10:15:08.347Z,18.79
2023-05-05T10:18:06.844Z,18.89
2023-05-05T10:20:35.665Z,19.09
2023-05-05T10:23:02.806Z,19.19
2023-05-05T10:25:31.303Z,19.37
2023-05-05T10:27:59.934Z,19.49
2023-05-05T10:30:30.010Z,19.50
2023-05-05T10:35:53.546Z,19.59
2023-05-05T10:38:19.963Z,19.44
2023-05-05T10:40:48.424Z,19.44
2023-05-05T10:43:15.107Z,19.44
2023-05-05T10:45:42.002Z,19.31
2023-05-05T10:48:12.757Z,19.23
2023-05-05T10:50:41.781Z,19.15
2023-05-05T10:53:13.555Z,19.00
2023-05-05T10:55:44.901Z,18.77
2023-05-05T10:58:43.587Z,18.50
2023-05-05T11:01:13.868Z,18.29
2023-05-05T11:03:40.270Z,18.11
2023-05-05T11:06:09.764Z,18.03
2023-05-05T11:08:40.480Z,17.98
2023-05-05T11:11:07.841Z,17.96
2023-05-05T11:13:34.210Z,17.95
2023-05-05T11:16:01.904Z,17.90
2023-05-05T11:18:37.686Z,17.89
2023-05-05T11:21:07.446Z,17.90
2023-05-05T11:23:34.076Z,17.94
2023-05-05T11:26:00.723Z,18.00
2023-05-05T11:28:30.896Z,18.08
2023-05-05T11:30:58.534Z,18.13
2023-05-05T11:33:37.838Z,18.24
2023-05-05T11:36:08.363Z,18.32
2023-05-05T11:38:50.170Z,18.54
2023-05-05T11:41:34.744Z,18.72
2023-05-05T11:44:19.724Z,18.82
2023-05-05T11:46:52.145Z,18.81
2023-05-05T11:49:28.008Z,18.81
2023-05-05T11:52:01.302Z,18.80
2023-05-05T11:54:27.850Z,18.84
2023-05-05T11:56:58.801Z,18.89
2023-05-05T11:59:25.184Z,18.96
2023-05-05T12:01:51.835Z,19.02
2023-05-05T12:04:18.312Z,19.01
2023-05-05T12:06:45.696Z,18.96
2023-05-05T12:09:15.531Z,18.93
2023-05-05T12:11:52.710Z,18.94
2023-05-05T12:14:19.262Z,18.92
2023-05-05T12:16:58.351Z,18.84
2023-05-05T12:19:29.743Z,18.76
2023-05-05T12:21:56.644Z,18.70
2023-05-05T12:24:23.204Z,18.69
2023-05-05T12:26:49.657Z,18.59
2023-05-05T12:29:26.210Z,18.49
2023-05-05T12:31:52.695Z,18.49
2023-05-05T12:34:19.106Z,18.45
2023-05-05T12:36:45.918Z,18.39
2023-05-05T12:39:12.288Z,18.36
2023-05-05T12:41:38.634Z,18.30
2023-05-05T12:44:05.195Z,18.27
2023-05-05T12:46:31.902Z,18.21
2023-05-05T12:49:04.820Z,18.20
2023-05-05T12:51:36.128Z,18.15
2023-05-05T12:54:07.146Z,18.07
2023-05-05T12:56:37.574Z,18.05
2023-05-05T12:59:08.048Z,18.05
2023-05-05T13:01:56.331Z,18.04
2023-05-05T13:04:23.808Z,18.03
2023-05-05T13:07:07.482Z,17.96
2023-05-05T13:09:34.632Z,17.96
2023-05-05T13:12:03.050Z,17.96
2023-05-05T13:14:30.768Z,18.01
2023-05-05T13:16:57.390Z,18.03
2023-05-05T13:19:27.498Z,18.16
2023-05-05T13:21:55.014Z,18.26
2023-05-05T13:24:28.717Z,18.47
2023-05-05T13:27:01.342Z,18.62
2023-05-05T13:29:31.137Z,18.79
2023-05-05T13:31:58.058Z,18.92
2023-05-05T13:34:24.680Z,19.06
2023-05-05T13:36:51.839Z,19.14
2023-05-05T13:39:18.399Z,19.19
2023-05-05T13:41:45.330Z,19.37
2023-05-05T13:44:12.193Z,19.43
2023-05-05T13:46:38.625Z,19.53
2023-05-05T13:49:05.064Z,19.73
2023-05-05T13:51:31.439Z,20.06
2023-05-05T13:53:58.960Z,20.42
2023-05-05T13:56:27.680Z,20.69
2023-05-05T13:58:54.320Z,20.80
2023-05-05T14:01:20.772Z,20.97
2023-05-05T14:03:47.200Z,20.98
2023-05-05T14:06:13.599Z,21.21
2023-05-05T14:08:39.966Z,21.26
2023-05-05T14:11:06.423Z,21.16
2023-05-05T14:13:32.849Z,21.24
2023-05-05T14:15:59.196Z,21.18
2023-05-05T14:18:25.981Z,21.14
2023-05-05T14:20:52.490Z,21.05
2023-05-05T14:23:18.909Z,21.06
2023-05-05T14:25:45.459Z,20.92
2023-05-05T14:28:11.865Z,20.79
2023-05-05T14:30:39.387Z,20.77
2023-05-05T14:33:05.951Z,20.76
2023-05-05T14:35:32.348Z,20.77
2023-05-05T14:37:58.697Z,20.69
2023-05-05T14:40:25.276Z,20.51
2023-05-05T14:42:51.731Z,20.60
2023-05-05T14:45:18.122Z,20.74
2023-05-05T14:47:44.591Z,20.85
2023-05-05T14:50:11.029Z,20.64
2023-05-05T14:52:39.224Z,20.82
2023-05-05T14:55:07.004Z,20.92
2023-05-05T14:57:33.486Z,20.95
2023-05-05T14:59:59.827Z,21.04
2023-05-05T15:02:26.473Z,21.02
2023-05-05T15:04:53.093Z,21.01
2023-05-05T15:07:20.486Z,20.93
2023-05-05T15:09:47.133Z,20.88
2023-05-05T15:12:13.517Z,20.84
2023-05-05T15:14:40.746Z,20.75
2023-05-05T15:17:07.336Z,20.52
2023-05-05T15:19:33.700Z,20.43
2023-05-05T15:22:00.042Z,20.41
2023-05-05T15:24:26.424Z,20.27
2023-05-05T15:26:52.787Z,20.21
2023-05-05T15:29:19.316Z,20.05
2023-05-05T15:31:45.901Z,20.02
2023-05-05T15:34:12.306Z,19.94
2023-05-05T15:36:38.737Z,19.87
2023-05-05T15:39:05.257Z,19.76
2023-05-05T15:41:33.755Z,19.66
2023-05-05T15:44:00.709Z,19.64
2023-05-05T15:46:27.179Z,19.58
2023-05-05T15:48:53.580Z,19.58
2023-05-05T15:51:20.083Z,19.46
2023-05-05T15:53:47.062Z,19.43
2023-05-05T15:56:13.457Z,19.40
2023-05-05T15:58:39.943Z,19.36
2023-05-05T16:01:06.578Z,19.34
2023-05-05T16:03:33.117Z,19.33
2023-05-05T16:05:59.805Z,19.35
2023-05-05T16:08:26.236Z,19.37
2023-05-05T16:10:52.665Z,19.35
2023-05-05T16:13:19.189Z,19.30
2023-05-05T16:15:46.285Z,19.25
2023-05-05T16:18:12.666Z,19.21
2023-05-05T16:20:39.052Z,19.20
2023-05-05T16:23:05.432Z,19.15
2023-05-05T16:25:31.804Z,19.11
2023-05-05T16:28:00.073Z,19.03
2023-05-05T16:30:26.742Z,18.97
2023-05-05T16:32:54.359Z,18.92
2023-05-05T16:35:21.093Z,18.85
2023-05-05T16:37:47.810Z,18.81
2023-05-05T16:40:14.212Z,18.73
2023-05-05T16:42:41.914Z,18.63
2023-05-05T16:45:10.641Z,18.58
2023-05-05T16:47:37.231Z,18.52
2023-05-05T16:50:04.026Z,18.46
2023-05-05T16:52:30.529Z,18.36
2023-05-05T16:54:57.214Z,18.30
2023-05-05T16:57:23.656Z,18.10
2023-05-05T16:59:50.096Z,17.89
2023-05-05T17:02:16.506Z,17.69
2023-05-05T17:04:42.850Z,17.46
2023-05-05T17:07:09.232Z,17.34
2023-05-05T17:09:35.806Z,17.25
2023-05-05T17:12:04.028Z,17.04
2023-05-05T17:14:30.624Z,16.93
2023-05-05T17:16:56.984Z,16.81
2023-05-05T17:19:23.350Z,16.71
2023-05-05T17:21:49.951Z,16.64
2023-05-05T17:24:16.297Z,16.56
2023-05-05T17:26:42.681Z,16.50
2023-05-05T17:29:10.914Z,16.42
2023-05-05T17:31:38.706Z,16.24
2023-05-05T17:34:05.246Z,16.10
2023-05-05T17:36:31.873Z,16.04
2023-05-05T17:38:58.275Z,15.92
2023-05-05T17:41:25.593Z,15.79
2023-05-05T17:43:52.025Z,15.66
2023-05-05T17:46:18.395Z,15.49
2023-05-05T17:48:44.830Z,15.32
2023-05-05T17:51:11.427Z,15.20
2023-05-05T17:53:37.776Z,15.10
2023-05-05T17:56:05.663Z,14.98
2023-05-05T17:58:33.933Z,15.07
2023-05-05T18:01:00.397Z,15.08
2023-05-05T18:03:26.952Z,15.08
2023-05-05T18:05:53.427Z,15.05
2023-05-05T18:08:19.788Z,15.03
2023-05-05T18:10:46.170Z,15.02
2023-05-05T18:13:12.778Z,15.04
2023-05-05T18:15:40.162Z,15.02
2023-05-05T18:18:06.530Z,14.97
2023-05-05T18:20:32.912Z,14.93
2023-05-05T18:22:59.250Z,14.93
2023-05-05T18:25:25.603Z,14.92
2023-05-05T18:27:52.164Z,14.86
2023-05-05T18:30:18.611Z,14.79
2023-05-05T18:32:45.022Z,14.78
2023-05-05T18:35:11.688Z,14.78
2023-05-05T18:37:38.270Z,14.79
2023-05-05T18:40:05.802Z,14.75
2023-05-05T18:42:32.367Z,14.73
2023-05-05T18:44:58.737Z,14.67
2023-05-05T18:47:26.093Z,14.67
2023-05-05T18:49:52.702Z,14.62
2023-05-05T18:52:19.073Z,14.58
2023-05-05T18:54:45.484Z,14.56
2023-05-05T18:57:11.980Z,14.54
2023-05-05T18:59:38.484Z,14.51
2023-05-05T19:02:04.943Z,14.47
2023-05-05T19:04:32.663Z,14.44
2023-05-05T19:06:59.568Z,14.43
2023-05-05T19:09:26.032Z,14.40
2023-05-05T19:11:52.479Z,14.38
2023-05-05T19:14:18.881Z,14.32
2023-05-05T19:16:45.298Z,14.28
2023-05-05T19:19:11.720Z,14.22
2023-05-05T19:21:38.318Z,14.20
2023-05-05T19:24:05.389Z,14.24
2023-05-05T19:26:31.761Z,14.16
2023-05-05T19:28:58.214Z,14.17
2023-05-05T19:31:27.830Z,14.08
2023-05-05T19:34:01.484Z,14.06
2023-05-05T19:36:28.148Z,14.15
2023-05-05T19:38:55.741Z,14.08
2023-05-05T19:41:22.284Z,14.11
2023-05-05T19:43:49.807Z,14.04
2023-05-05T19:46:17.035Z,14.05
2023-05-05T19:48:44.030Z,14.02
2023-05-05T19:51:10.411Z,14.00
2023-05-05T19:53:36.772Z,14.03
2023-05-05T19:56:04.785Z,14.00
2023-05-05T19:58:33.775Z,14.01
2023-05-05T20:01:00.198Z,14.01
2023-05-05T20:03:26.830Z,13.98
2023-05-05T20:05:53.363Z,13.93
2023-05-05T20:08:19.852Z,13.95
2023-05-05T20:10:46.366Z,13.85
2023-05-05T20:13:12.873Z,13.82
2023-05-05T20:15:39.436Z,13.82
2023-05-05T20:18:05.912Z,13.84
2023-05-05T20:20:32.277Z,13.85
2023-05-05T20:22:58.608Z,13.86
2023-05-05T20:25:25.030Z,13.84
2023-05-05T20:27:51.383Z,13.81
2023-05-05T20:30:17.858Z,13.75
2023-05-05T20:32:44.395Z,13.79
2023-05-05T20:35:12.674Z,13.75
2023-05-05T20:37:39.182Z,13.74
2023-05-05T20:40:06.499Z,13.63
2023-05-05T20:42:32.931Z,13.56
2023-05-05T20:45:00.575Z,13.64
2023-05-05T20:47:27.094Z,13.63
2023-05-05T20:49:53.484Z,13.66
2023-05-05T20:52:19.903Z,13.67
2023-05-05T20:54:46.469Z,13.60
2023-05-05T20:57:12.830Z,13.65
2023-05-05T20:59:39.196Z,13.60
2023-05-05T21:02:05.759Z,13.59
2023-05-05T21:04:32.352Z,13.50
2023-05-05T21:06:58.721Z,13.54
2023-05-05T21:09:25.150Z,13.49
2023-05-05T21:11:51.516Z,13.53
2023-05-05T21:14:17.900Z,13.50
2023-05-05T21:16:44.303Z,13.49
2023-05-05T21:19:10.693Z,13.48
2023-05-05T21:21:37.029Z,13.46
2023-05-05T21:24:04.904Z,13.40
2023-05-05T21:26:32.629Z,13.36
2023-05-05T21:28:59.014Z,13.40
2023-05-05T21:31:25.444Z,13.40
2023-05-05T21:33:51.788Z,13.45
2023-05-05T21:36:19.204Z,13.45
2023-05-05T21:38:45.971Z,13.44
2023-05-05T21:41:12.404Z,13.41
2023-05-05T21:43:38.768Z,13.39
2023-05-05T21:46:05.663Z,13.40
2023-05-05T21:48:32.748Z,13.29
2023-05-05T21:50:59.189Z,13.31
2023-05-05T21:53:25.753Z,13.36
2023-05-05T21:55:52.170Z,13.34
2023-05-05T21:58:18.517Z,13.38
2023-05-05T22:00:45.147Z,13.42
2023-05-05T22:03:12.062Z,13.42
2023-05-05T22:05:38.464Z,13.46
2023-05-05T22:08:04.914Z,13.42
2023-05-05T22:10:31.301Z,13.42
2023-05-05T22:12:58.048Z,13.46
2023-05-05T22:15:27.613Z,13.49
2023-05-05T22:17:56.596Z,13.42
2023-05-05T22:20:23.073Z,13.45
2023-05-05T22:22:49.610Z,13.44
2023-05-05T22:25:16.194Z,13.46
2023-05-05T22:27:42.822Z,13.47
2023-05-05T22:30:09.820Z,13.42
2023-05-05T22:32:36.206Z,13.41
2023-05-05T22:35:02.615Z,13.39
2023-05-05T22:37:29.149Z,13.34
2023-05-05T22:39:55.668Z,13.33
2023-05-05T22:42:22.044Z,13.25
2023-05-05T22:44:48.584Z,13.26
2023-05-05T22:47:15.116Z,13.23
2023-05-05T22:49:41.587Z,13.29
2023-05-05T22:52:08.824Z,13.28
2023-05-05T22:54:35.149Z,13.27
2023-05-05T22:57:02.150Z,13.25
2023-05-05T22:59:28.746Z,13.24
2023-05-05T23:01:55.153Z,13.20
2023-05-05T23:04:21.596Z,13.17
2023-05-05T23:06:48.008Z,13.11
2023-05-05T23:09:14.644Z,13.11
2023-05-05T23:11:41.031Z,13.10
2023-05-05T23:14:07.400Z,13.09
2023-05-05T23:16:33.834Z,13.07
2023-05-05T23:19:00.301Z,13.01
2023-05-05T23:21:26.852Z,12.95
2023-05-05T23:23:54.915Z,13.02
2023-05-05T23:26:21.342Z,13.04
2023-05-05T23:28:47.770Z,13.02
2023-05-05T23:31:14.259Z,13.10
2023-05-05T23:33:40.623Z,13.09
2023-05-05T23:36:07.080Z,13.09
2023-05-05T23:38:33.454Z,13.07
2023-05-05T23:40:59.842Z,13.12
2023-05-05T23:43:26.446Z,13.13
2023-05-05T23:45:52.803Z,13.12
2023-05-05T23:48:19.556Z,13.09
2023-05-05T23:50:46.093Z,13.08
2023-05-05T23:53:12.438Z,13.08
2023-05-05T23:55:38.772Z,12.98
2023-05-05T23:58:05.163Z,13.04
